sensor_id;sensor_type;location;lat;lon;timestamp;pressure;altitude;pressure_sealevel;temperature;humidity
7170;BME280;3626;42.656;23.312;2023-04-02T00:00:16;93646.22;;;7.32;78.35
7170;BME280;3626;42.656;23.312;2023-04-02T00:00:23;93638.34;;;7.34;78.40
7170;BME280;3626;42.656;23.312;2023-04-02T00:00:29;93657.28;;;7.33;78.43
7170;BME280;3626;42.656;23.312;2023-04-02T00:00:36;93644.44;;;7.33;78.11
7170;BME280;3626;42.656;23.312;2023-04-02T00:01:18;93645.25;;;7.33;78.06
7170;BME280;3626;42.656;23.312;2023-04-02T00:01:34;93653.91;;;7.32;78.36
7170;BME280;3626;42.656;23.312;2023-04-02T00:01:41;93654.91;;;7.31;78.20
7170;BME280;3626;42.656;23.312;2023-04-02T00:01:47;93652.31;;;7.31;78.17
7170;BME280;3626;42.656;23.312;2023-04-02T00:01:53;93649.75;;;7.31;78.23
7170;BME280;3626;42.656;23.312;2023-04-02T00:02:30;93640.09;;;7.33;77.53
7170;BME280;3626;42.656;23.312;2023-04-02T00:02:45;93646.03;;;7.34;77.45
7170;BME280;3626;42.656;23.312;2023-04-02T00:02:58;93640.09;;;7.33;78.06
7170;BME280;3626;42.656;23.312;2023-04-02T00:03:06;93640.09;;;7.33;77.79
7170;BME280;3626;42.656;23.312;2023-04-02T00:03:12;93642.69;;;7.33;77.62
7170;BME280;3626;42.656;23.312;2023-04-02T00:03:18;93646.84;;;7.34;77.64
7170;BME280;3626;42.656;23.312;2023-04-02T00:04:03;93638.53;;;7.32;77.74
7170;BME280;3626;42.656;23.312;2023-04-02T00:04:18;93637.72;;;7.32;77.41
7170;BME280;3626;42.656;23.312;2023-04-02T00:04:26;93641.88;;;7.33;77.58
7170;BME280;3626;42.656;23.312;2023-04-02T00:04:34;93644.44;;;7.33;77.53
7170;BME280;3626;42.656;23.312;2023-04-02T00:04:42;93646.22;;;7.32;77.22
7170;BME280;3626;42.656;23.312;2023-04-02T00:05:26;93643.47;;;7.34;78.04
7170;BME280;3626;42.656;23.312;2023-04-02T00:05:42;93634.00;;;7.34;77.55
7170;BME280;3626;42.656;23.312;2023-04-02T00:05:54;93638.34;;;7.34;77.36
7170;BME280;3626;42.656;23.312;2023-04-02T00:06:01;93646.03;;;7.34;77.32
7170;BME280;3626;42.656;23.312;2023-04-02T00:06:34;93649.41;;;7.34;77.42
7170;BME280;3626;42.656;23.312;2023-04-02T00:06:44;93644.44;;;7.33;76.92
7170;BME280;3626;42.656;23.312;2023-04-02T00:06:53;93643.47;;;7.34;77.06
7170;BME280;3626;42.656;23.312;2023-04-02T00:07:17;93639.94;;;7.35;77.26
7170;BME280;3626;42.656;23.312;2023-04-02T00:07:34;93651.97;;;7.34;77.20
7170;BME280;3626;42.656;23.312;2023-04-02T00:07:43;93650.19;;;7.35;77.61
7170;BME280;3626;42.656;23.312;2023-04-02T00:07:53;93649.41;;;7.34;77.39
7170;BME280;3626;42.656;23.312;2023-04-02T00:08:04;93652.75;;;7.35;77.59
7170;BME280;3626;42.656;23.312;2023-04-02T00:08:19;93638.97;;;7.36;77.13
7170;BME280;3626;42.656;23.312;2023-04-02T00:08:28;93644.13;;;7.36;76.67
7170;BME280;3626;42.656;23.312;2023-04-02T00:08:43;93648.28;;;7.37;76.50
7170;BME280;3626;42.656;23.312;2023-04-02T00:08:49;93651.63;;;7.37;76.73
7170;BME280;3626;42.656;23.312;2023-04-02T00:08:55;93643.94;;;7.37;76.79
7170;BME280;3626;42.656;23.312;2023-04-02T00:09:19;93650.66;;;7.38;76.88
7170;BME280;3626;42.656;23.312;2023-04-02T00:09:34;93651.44;;;7.39;76.65
7170;BME280;3626;42.656;23.312;2023-04-02T00:09:42;93651.63;;;7.37;77.10
7170;BME280;3626;42.656;23.312;2023-04-02T00:09:48;93661.72;;;7.39;76.57
7170;BME280;3626;42.656;23.312;2023-04-02T00:09:53;93653.22;;;7.38;77.01
7170;BME280;3626;42.656;23.312;2023-04-02T00:09:59;93643.75;;;7.39;77.21
7170;BME280;3626;42.656;23.312;2023-04-02T00:10:25;93653.22;;;7.38;76.59
7170;BME280;3626;42.656;23.312;2023-04-02T00:10:35;93653.41;;;7.37;76.40
7170;BME280;3626;42.656;23.312;2023-04-02T00:10:47;93648.09;;;7.38;77.10
7170;BME280;3626;42.656;23.312;2023-04-02T00:10:57;93649.88;;;7.38;76.84
7170;BME280;3626;42.656;23.312;2023-04-02T00:11:08;93653.59;;;7.35;77.26
7170;BME280;3626;42.656;23.312;2023-04-02T00:11:26;93654.53;;;7.34;77.58
7170;BME280;3626;42.656;23.312;2023-04-02T00:11:36;93651.34;;;7.32;77.31
7170;BME280;3626;42.656;23.312;2023-04-02T00:11:45;93644.44;;;7.33;77.24
7170;BME280;3626;42.656;23.312;2023-04-02T00:11:53;93645.88;;;7.35;77.48
7170;BME280;3626;42.656;23.312;2023-04-02T00:12:12;93647.63;;;7.35;77.01
7170;BME280;3626;42.656;23.312;2023-04-02T00:12:20;93643.47;;;7.34;77.51
7170;BME280;3626;42.656;23.312;2023-04-02T00:12:26;93645.06;;;7.35;77.20
7170;BME280;3626;42.656;23.312;2023-04-02T00:12:32;93649.41;;;7.34;77.27
7170;BME280;3626;42.656;23.312;2023-04-02T00:12:38;93651.16;;;7.34;77.07
7170;BME280;3626;42.656;23.312;2023-04-02T00:12:58;93647.63;;;7.35;76.78
7170;BME280;3626;42.656;23.312;2023-04-02T00:13:19;93655.31;;;7.35;77.19
7170;BME280;3626;42.656;23.312;2023-04-02T00:13:33;93647.63;;;7.35;76.88
7170;BME280;3626;42.656;23.312;2023-04-02T00:13:43;93651.03;;;7.35;77.27
7170;BME280;3626;42.656;23.312;2023-04-02T00:13:53;93655.31;;;7.35;77.64
7170;BME280;3626;42.656;23.312;2023-04-02T00:13:59;93651.16;;;7.34;77.64
7170;BME280;3626;42.656;23.312;2023-04-02T00:14:14;93651.34;;;7.32;77.84
7170;BME280;3626;42.656;23.312;2023-04-02T00:14:24;93651.34;;;7.32;78.08
7170;BME280;3626;42.656;23.312;2023-04-02T00:14:32;93656.47;;;7.32;78.12
7170;BME280;3626;42.656;23.312;2023-04-02T00:14:38;93657.28;;;7.33;77.66
7170;BME280;3626;42.656;23.312;2023-04-02T00:14:50;93657.28;;;7.33;77.79
7170;BME280;3626;42.656;23.312;2023-04-02T00:14:56;93656.47;;;7.32;77.81
7170;BME280;3626;42.656;23.312;2023-04-02T00:15:03;93653.91;;;7.32;77.90
7170;BME280;3626;42.656;23.312;2023-04-02T00:15:11;93659.06;;;7.32;77.36
7170;BME280;3626;42.656;23.312;2023-04-02T00:15:17;93656.47;;;7.32;77.69
7170;BME280;3626;42.656;23.312;2023-04-02T00:15:23;93654.72;;;7.33;77.87
7170;BME280;3626;42.656;23.312;2023-04-02T00:15:29;93654.72;;;7.33;77.57
7170;BME280;3626;42.656;23.312;2023-04-02T00:15:37;93658.06;;;7.33;77.25
7170;BME280;3626;42.656;23.312;2023-04-02T00:15:46;93658.06;;;7.33;77.34
7170;BME280;3626;42.656;23.312;2023-04-02T00:15:55;93662.41;;;7.33;77.57
7170;BME280;3626;42.656;23.312;2023-04-02T00:16:04;93652.16;;;7.33;77.70
7170;BME280;3626;42.656;23.312;2023-04-02T00:16:14;93657.91;;;7.35;77.58
7170;BME280;3626;42.656;23.312;2023-04-02T00:16:22;93655.50;;;7.33;77.49
7170;BME280;3626;42.656;23.312;2023-04-02T00:16:29;93657.28;;;7.33;77.37
7170;BME280;3626;42.656;23.312;2023-04-02T00:16:37;93657.28;;;7.33;77.66
7170;BME280;3626;42.656;23.312;2023-04-02T00:16:43;93651.34;;;7.32;77.34
7170;BME280;3626;42.656;23.312;2023-04-02T00:16:50;93653.91;;;7.32;77.32
7170;BME280;3626;42.656;23.312;2023-04-02T00:16:59;93653.13;;;7.32;77.12
7170;BME280;3626;42.656;23.312;2023-04-02T00:17:05;93650.56;;;7.32;77.73
7170;BME280;3626;42.656;23.312;2023-04-02T00:17:12;93650.72;;;7.30;77.26
7170;BME280;3626;42.656;23.312;2023-04-02T00:17:20;93658.25;;;7.32;77.93
7170;BME280;3626;42.656;23.312;2023-04-02T00:17:27;93658.25;;;7.32;77.76
7170;BME280;3626;42.656;23.312;2023-04-02T00:17:32;93660.03;;;7.31;77.59
7170;BME280;3626;42.656;23.312;2023-04-02T00:17:38;93657.47;;;7.31;77.93
7170;BME280;3626;42.656;23.312;2023-04-02T00:17:44;93658.41;;;7.30;77.70
7170;BME280;3626;42.656;23.312;2023-04-02T00:17:50;93658.41;;;7.30;77.84
7170;BME280;3626;42.656;23.312;2023-04-02T00:17:56;93660.19;;;7.30;78.09
7170;BME280;3626;42.656;23.312;2023-04-02T00:18:03;93657.59;;;7.30;77.79
7170;BME280;3626;42.656;23.312;2023-04-02T00:18:12;93663.72;;;7.29;77.97
7170;BME280;3626;42.656;23.312;2023-04-02T00:18:20;93661.94;;;7.29;78.40
7170;BME280;3626;42.656;23.312;2023-04-02T00:18:27;93660.34;;;7.28;78.53
7170;BME280;3626;42.656;23.312;2023-04-02T00:18:37;93650.88;;;7.29;78.20
7170;BME280;3626;42.656;23.312;2023-04-02T00:18:49;93654.25;;;7.29;77.71
7170;BME280;3626;42.656;23.312;2023-04-02T00:19:00;93654.25;;;7.29;77.73
7170;BME280;3626;42.656;23.312;2023-04-02T00:19:13;93646.56;;;7.29;77.46
7170;BME280;3626;42.656;23.312;2023-04-02T00:19:26;93642.22;;;7.30;77.17
7170;BME280;3626;42.656;23.312;2023-04-02T00:19:35;93646.56;;;7.29;77.64
7170;BME280;3626;42.656;23.312;2023-04-02T00:19:45;93649.13;;;7.29;77.71
7170;BME280;3626;42.656;23.312;2023-04-02T00:19:56;93667.88;;;7.30;77.74
7170;BME280;3626;42.656;23.312;2023-04-02T00:20:04;93659.38;;;7.29;77.76
7170;BME280;3626;42.656;23.312;2023-04-02T00:20:15;93655.22;;;7.28;77.93
7170;BME280;3626;42.656;23.312;2023-04-02T00:20:25;93650.09;;;7.28;77.40
7170;BME280;3626;42.656;23.312;2023-04-02T00:20:34;93646.56;;;7.29;77.56
7170;BME280;3626;42.656;23.312;2023-04-02T00:20:44;93655.22;;;7.28;77.33
7170;BME280;3626;42.656;23.312;2023-04-02T00:20:55;93653.63;;;7.27;77.76
7170;BME280;3626;42.656;23.312;2023-04-02T00:21:11;93663.25;;;7.25;77.66
7170;BME280;3626;42.656;23.312;2023-04-02T00:21:21;93664.06;;;7.25;77.70
7170;BME280;3626;42.656;23.312;2023-04-02T00:21:29;93657.16;;;7.26;78.24
7170;BME280;3626;42.656;23.312;2023-04-02T00:21:36;93656.34;;;7.25;77.86
7170;BME280;3626;42.656;23.312;2023-04-02T00:21:44;93653.00;;;7.25;78.09
7170;BME280;3626;42.656;23.312;2023-04-02T00:21:51;93657.16;;;7.26;78.03
7170;BME280;3626;42.656;23.312;2023-04-02T00:21:58;93655.22;;;7.28;77.49
7170;BME280;3626;42.656;23.312;2023-04-02T00:22:08;93647.53;;;7.28;77.80
7170;BME280;3626;42.656;23.312;2023-04-02T00:22:19;93652.66;;;7.28;77.41
7170;BME280;3626;42.656;23.312;2023-04-02T00:22:27;93641.59;;;7.28;77.66
7170;BME280;3626;42.656;23.312;2023-04-02T00:22:33;93654.44;;;7.28;77.82
7170;BME280;3626;42.656;23.312;2023-04-02T00:22:42;93651.06;;;7.27;77.72
7170;BME280;3626;42.656;23.312;2023-04-02T00:22:48;93651.22;;;7.25;78.25
7170;BME280;3626;42.656;23.312;2023-04-02T00:22:55;93650.41;;;7.25;77.98
7170;BME280;3626;42.656;23.312;2023-04-02T00:23:02;93648.84;;;7.24;78.25
7170;BME280;3626;42.656;23.312;2023-04-02T00:23:09;93649.81;;;7.23;78.63
7170;BME280;3626;42.656;23.312;2023-04-02T00:23:16;93660.88;;;7.23;78.90
7170;BME280;3626;42.656;23.312;2023-04-02T00:23:22;93653.16;;;7.23;78.58
7170;BME280;3626;42.656;23.312;2023-04-02T00:23:29;93641.13;;;7.24;77.96
7170;BME280;3626;42.656;23.312;2023-04-02T00:23:36;93643.69;;;7.24;77.60
7170;BME280;3626;42.656;23.312;2023-04-02T00:23:42;93637.59;;;7.25;77.43
7170;BME280;3626;42.656;23.312;2023-04-02T00:23:49;93645.28;;;7.25;77.84
7170;BME280;3626;42.656;23.312;2023-04-02T00:23:59;93646.09;;;7.25;77.59
7170;BME280;3626;42.656;23.312;2023-04-02T00:24:13;93640.94;;;7.25;77.33
7170;BME280;3626;42.656;23.312;2023-04-02T00:24:21;93646.88;;;7.26;77.38
7170;BME280;3626;42.656;23.312;2023-04-02T00:24:27;93645.28;;;7.25;77.39
7170;BME280;3626;42.656;23.312;2023-04-02T00:24:33;93649.44;;;7.26;77.68
7170;BME280;3626;42.656;23.312;2023-04-02T00:24:38;93647.84;;;7.25;77.29
7170;BME280;3626;42.656;23.312;2023-04-02T00:24:47;93643.69;;;7.24;77.77
7170;BME280;3626;42.656;23.312;2023-04-02T00:24:55;93640.34;;;7.23;77.79
7170;BME280;3626;42.656;23.312;2023-04-02T00:25:09;93650.41;;;7.25;77.50
7170;BME280;3626;42.656;23.312;2023-04-02T00:25:16;93648.84;;;7.24;77.78
7170;BME280;3626;42.656;23.312;2023-04-02T00:25:26;93645.47;;;7.23;77.96
7170;BME280;3626;42.656;23.312;2023-04-02T00:25:35;93653.16;;;7.23;77.82
7170;BME280;3626;42.656;23.312;2023-04-02T00:25:47;93647.25;;;7.23;78.26
7170;BME280;3626;42.656;23.312;2023-04-02T00:25:53;93642.09;;;7.23;78.04
7170;BME280;3626;42.656;23.312;2023-04-02T00:25:59;93643.69;;;7.24;77.48
7170;BME280;3626;42.656;23.312;2023-04-02T00:26:22;93641.13;;;7.24;76.85
7170;BME280;3626;42.656;23.312;2023-04-02T00:26:30;93636.78;;;7.24;76.99
7170;BME280;3626;42.656;23.312;2023-04-02T00:26:38;93634.22;;;7.24;76.72
7170;BME280;3626;42.656;23.312;2023-04-02T00:26:47;93630.88;;;7.24;76.88
7170;BME280;3626;42.656;23.312;2023-04-02T00:26:53;93638.56;;;7.24;77.03
7170;BME280;3626;42.656;23.312;2023-04-02T00:26:59;93632.63;;;7.23;76.81
7170;BME280;3626;42.656;23.312;2023-04-02T00:27:09;93635.22;;;7.23;77.07
7170;BME280;3626;42.656;23.312;2023-04-02T00:27:18;93626.72;;;7.23;76.67
7170;BME280;3626;42.656;23.312;2023-04-02T00:27:24;93633.63;;;7.22;76.53
7170;BME280;3626;42.656;23.312;2023-04-02T00:27:30;93637.91;;;7.22;76.82
7170;BME280;3626;42.656;23.312;2023-04-02T00:27:36;93636.97;;;7.23;76.82
7170;BME280;3626;42.656;23.312;2023-04-02T00:27:42;93637.91;;;7.22;77.10
7170;BME280;3626;42.656;23.312;2023-04-02T00:27:48;93633.63;;;7.22;76.70
7170;BME280;3626;42.656;23.312;2023-04-02T00:27:55;93638.75;;;7.22;76.88
7170;BME280;3626;42.656;23.312;2023-04-02T00:28:02;93626.72;;;7.23;76.87
7170;BME280;3626;42.656;23.312;2023-04-02T00:28:11;93638.56;;;7.24;77.21
7170;BME280;3626;42.656;23.312;2023-04-02T00:28:19;93638.56;;;7.24;76.81
7170;BME280;3626;42.656;23.312;2023-04-02T00:28:25;93627.31;;;7.25;76.95
7170;BME280;3626;42.656;23.312;2023-04-02T00:28:31;93627.97;;;7.27;77.13
7170;BME280;3626;42.656;23.312;2023-04-02T00:28:37;93640.81;;;7.27;77.25
7170;BME280;3626;42.656;23.312;2023-04-02T00:28:46;93631.47;;;7.26;76.63
7170;BME280;3626;42.656;23.312;2023-04-02T00:28:52;93625.56;;;7.25;76.91
7170;BME280;3626;42.656;23.312;2023-04-02T00:28:58;93626.34;;;7.26;77.24
7170;BME280;3626;42.656;23.312;2023-04-02T00:29:09;93629.88;;;7.25;76.90
7170;BME280;3626;42.656;23.312;2023-04-02T00:29:17;93629.88;;;7.25;77.09
7170;BME280;3626;42.656;23.312;2023-04-02T00:29:23;93628.13;;;7.25;76.76
7170;BME280;3626;42.656;23.312;2023-04-02T00:29:29;93632.47;;;7.25;77.47
7170;BME280;3626;42.656;23.312;2023-04-02T00:29:44;93627.31;;;7.25;77.22
7170;BME280;3626;42.656;23.312;2023-04-02T00:29:52;93629.88;;;7.25;77.28
7170;BME280;3626;42.656;23.312;2023-04-02T00:29:58;93630.34;;;7.29;76.92
7170;BME280;3626;42.656;23.312;2023-04-02T00:30:07;93630.34;;;7.29;76.76
7170;BME280;3626;42.656;23.312;2023-04-02T00:30:15;93629.38;;;7.30;76.16
7170;BME280;3626;42.656;23.312;2023-04-02T00:30:22;93632.75;;;7.30;76.28
7170;BME280;3626;42.656;23.312;2023-04-02T00:30:29;93631.00;;;7.31;76.44
7170;BME280;3626;42.656;23.312;2023-04-02T00:30:35;93630.19;;;7.30;76.24
7170;BME280;3626;42.656;23.312;2023-04-02T00:30:46;93624.09;;;7.31;75.93
7170;BME280;3626;42.656;23.312;2023-04-02T00:30:55;93632.59;;;7.32;75.64
7170;BME280;3626;42.656;23.312;2023-04-02T00:31:03;93624.91;;;7.32;75.19
7170;BME280;3626;42.656;23.312;2023-04-02T00:31:10;93623.31;;;7.31;75.19
7170;BME280;3626;42.656;23.312;2023-04-02T00:31:20;93622.47;;;7.30;75.96
7170;BME280;3626;42.656;23.312;2023-04-02T00:31:26;93624.09;;;7.31;75.55
7170;BME280;3626;42.656;23.312;2023-04-02T00:31:34;93624.91;;;7.32;74.99
7170;BME280;3626;42.656;23.312;2023-04-02T00:31:46;93633.22;;;7.34;75.15
7170;BME280;3626;42.656;23.312;2023-04-02T00:31:53;93626.47;;;7.33;74.59
7170;BME280;3626;42.656;23.312;2023-04-02T00:31:59;93617.81;;;7.34;74.85
7170;BME280;3626;42.656;23.312;2023-04-02T00:32:05;93622.94;;;7.34;74.71
7170;BME280;3626;42.656;23.312;2023-04-02T00:32:16;93630.81;;;7.32;74.93
7170;BME280;3626;42.656;23.312;2023-04-02T00:32:26;93632.59;;;7.32;74.77
7170;BME280;3626;42.656;23.312;2023-04-02T00:32:34;93620.72;;;7.31;75.67
7170;BME280;3626;42.656;23.312;2023-04-02T00:32:41;93636.94;;;7.31;75.10
7170;BME280;3626;42.656;23.312;2023-04-02T00:32:47;93631.00;;;7.31;75.74
7170;BME280;3626;42.656;23.312;2023-04-02T00:32:54;93629.22;;;7.31;75.69
7170;BME280;3626;42.656;23.312;2023-04-02T00:33:00;93643.84;;;7.31;75.67
7170;BME280;3626;42.656;23.312;2023-04-02T00:33:11;93638.69;;;7.31;76.08
7170;BME280;3626;42.656;23.312;2023-04-02T00:33:21;93653.28;;;7.30;76.02
7170;BME280;3626;42.656;23.312;2023-04-02T00:33:29;93640.63;;;7.29;75.99
7170;BME280;3626;42.656;23.312;2023-04-02T00:33:36;93640.44;;;7.30;76.30
7170;BME280;3626;42.656;23.312;2023-04-02T00:33:42;93640.63;;;7.29;75.70
7170;BME280;3626;42.656;23.312;2023-04-02T00:33:48;93649.13;;;7.29;75.93
7170;BME280;3626;42.656;23.312;2023-04-02T00:33:55;93649.13;;;7.29;76.30
7170;BME280;3626;42.656;23.312;2023-04-02T00:34:02;93639.03;;;7.28;76.38
7170;BME280;3626;42.656;23.312;2023-04-02T00:34:16;93638.06;;;7.29;76.70
7170;BME280;3626;42.656;23.312;2023-04-02T00:34:27;93644.97;;;7.28;77.20
7170;BME280;3626;42.656;23.312;2023-04-02T00:34:36;93642.41;;;7.28;77.00
7170;BME280;3626;42.656;23.312;2023-04-02T00:34:42;93646.56;;;7.29;77.16
7170;BME280;3626;42.656;23.312;2023-04-02T00:34:48;93645.75;;;7.29;77.60
7170;BME280;3626;42.656;23.312;2023-04-02T00:34:58;93645.75;;;7.29;77.39
7170;BME280;3626;42.656;23.312;2023-04-02T00:35:09;93644.97;;;7.28;77.65
7170;BME280;3626;42.656;23.312;2023-04-02T00:35:20;93647.53;;;7.28;77.21
7170;BME280;3626;42.656;23.312;2023-04-02T00:35:28;93639.03;;;7.28;77.49
7170;BME280;3626;42.656;23.312;2023-04-02T00:35:37;93649.13;;;7.29;77.49
7170;BME280;3626;42.656;23.312;2023-04-02T00:35:43;93643.00;;;7.30;77.56
7170;BME280;3626;42.656;23.312;2023-04-02T00:35:51;93645.75;;;7.29;76.97
7170;BME280;3626;42.656;23.312;2023-04-02T00:35:59;93648.31;;;7.29;77.88
7170;BME280;3626;42.656;23.312;2023-04-02T00:36:05;93639.81;;;7.28;77.32
7170;BME280;3626;42.656;23.312;2023-04-02T00:36:12;93642.41;;;7.28;77.46
7170;BME280;3626;42.656;23.312;2023-04-02T00:36:18;93642.41;;;7.28;77.26
7170;BME280;3626;42.656;23.312;2023-04-02T00:36:29;93641.59;;;7.28;76.72
7170;BME280;3626;42.656;23.312;2023-04-02T00:36:35;93638.25;;;7.27;76.76
7170;BME280;3626;42.656;23.312;2023-04-02T00:36:42;93643.38;;;7.27;76.81
7170;BME280;3626;42.656;23.312;2023-04-02T00:36:49;93643.38;;;7.27;77.09
7170;BME280;3626;42.656;23.312;2023-04-02T00:36:58;93634.06;;;7.26;76.98
7170;BME280;3626;42.656;23.312;2023-04-02T00:37:04;93637.25;;;7.28;77.28
7170;BME280;3626;42.656;23.312;2023-04-02T00:37:15;93634.69;;;7.28;77.18
7170;BME280;3626;42.656;23.312;2023-04-02T00:37:24;93638.06;;;7.29;76.80
7170;BME280;3626;42.656;23.312;2023-04-02T00:37:33;93634.69;;;7.28;76.93
7170;BME280;3626;42.656;23.312;2023-04-02T00:37:43;93645.75;;;7.29;76.76
7170;BME280;3626;42.656;23.312;2023-04-02T00:37:49;93644.97;;;7.28;76.35
7170;BME280;3626;42.656;23.312;2023-04-02T00:37:56;93644.97;;;7.28;76.52
7170;BME280;3626;42.656;23.312;2023-04-02T00:38:02;93644.97;;;7.28;76.73
7170;BME280;3626;42.656;23.312;2023-04-02T00:38:17;93634.69;;;7.28;76.84
7170;BME280;3626;42.656;23.312;2023-04-02T00:38:26;93635.50;;;7.29;76.81
7170;BME280;3626;42.656;23.312;2023-04-02T00:38:34;93637.88;;;7.30;76.26
7170;BME280;3626;42.656;23.312;2023-04-02T00:38:41;93644.63;;;7.31;76.53
7170;BME280;3626;42.656;23.312;2023-04-02T00:38:48;93629.38;;;7.30;76.84
7170;BME280;3626;42.656;23.312;2023-04-02T00:38:57;93633.72;;;7.29;76.38
7170;BME280;3626;42.656;23.312;2023-04-02T00:39:11;93632.75;;;7.30;75.27
7170;BME280;3626;42.656;23.312;2023-04-02T00:39:22;93626.81;;;7.30;75.72
7170;BME280;3626;42.656;23.312;2023-04-02T00:39:30;93641.25;;;7.31;75.90
7170;BME280;3626;42.656;23.312;2023-04-02T00:39:38;93633.56;;;7.31;75.81
7170;BME280;3626;42.656;23.312;2023-04-02T00:39:48;93639.50;;;7.31;76.15
7170;BME280;3626;42.656;23.312;2023-04-02T00:39:59;93636.94;;;7.31;76.01
7170;BME280;3626;42.656;23.312;2023-04-02T00:40:18;93633.38;;;7.32;75.81
7170;BME280;3626;42.656;23.312;2023-04-02T00:40:25;93630.81;;;7.32;75.79
7170;BME280;3626;42.656;23.312;2023-04-02T00:40:32;93635.94;;;7.32;75.69
7170;BME280;3626;42.656;23.312;2023-04-02T00:40:38;93636.75;;;7.33;76.13
7170;BME280;3626;42.656;23.312;2023-04-02T00:40:45;93636.75;;;7.33;76.32
7170;BME280;3626;42.656;23.312;2023-04-02T00:40:51;93640.91;;;7.34;76.67
7170;BME280;3626;42.656;23.312;2023-04-02T00:41:02;93647.00;;;7.33;76.64
7170;BME280;3626;42.656;23.312;2023-04-02T00:41:13;93648.00;;;7.32;76.64
7170;BME280;3626;42.656;23.312;2023-04-02T00:41:23;93642.84;;;7.32;76.80
7170;BME280;3626;42.656;23.312;2023-04-02T00:41:31;93639.50;;;7.31;76.69
7170;BME280;3626;42.656;23.312;2023-04-02T00:41:41;93639.50;;;7.31;76.84
7170;BME280;3626;42.656;23.312;2023-04-02T00:41:52;93645.41;;;7.32;76.79
7170;BME280;3626;42.656;23.312;2023-04-02T00:42:03;93635.94;;;7.32;77.19
7170;BME280;3626;42.656;23.312;2023-04-02T00:42:11;93640.28;;;7.32;77.24
7170;BME280;3626;42.656;23.312;2023-04-02T00:42:17;93639.50;;;7.31;77.31
7170;BME280;3626;42.656;23.312;2023-04-02T00:42:24;93643.66;;;7.32;77.13
7170;BME280;3626;42.656;23.312;2023-04-02T00:42:31;93644.63;;;7.31;77.66
7170;BME280;3626;42.656;23.312;2023-04-02T00:42:39;93646.41;;;7.31;77.32
7170;BME280;3626;42.656;23.312;2023-04-02T00:42:45;93639.50;;;7.31;77.37
7170;BME280;3626;42.656;23.312;2023-04-02T00:42:55;93643.97;;;7.29;77.35
7170;BME280;3626;42.656;23.312;2023-04-02T00:43:04;93647.34;;;7.30;77.07
7170;BME280;3626;42.656;23.312;2023-04-02T00:43:13;93634.50;;;7.30;77.16
7170;BME280;3626;42.656;23.312;2023-04-02T00:43:22;93636.13;;;7.31;77.42
7170;BME280;3626;42.656;23.312;2023-04-02T00:43:31;93638.84;;;7.29;77.46
7170;BME280;3626;42.656;23.312;2023-04-02T00:43:42;93634.69;;;7.28;77.19
7170;BME280;3626;42.656;23.312;2023-04-02T00:43:49;93637.25;;;7.28;77.69
7170;BME280;3626;42.656;23.312;2023-04-02T00:43:57;93640.81;;;7.27;77.76
7170;BME280;3626;42.656;23.312;2023-04-02T00:44:05;93635.81;;;7.25;77.34
7170;BME280;3626;42.656;23.312;2023-04-02T00:44:16;93640.16;;;7.25;77.47
7170;BME280;3626;42.656;23.312;2023-04-02T00:44:27;93635.81;;;7.25;77.87
7170;BME280;3626;42.656;23.312;2023-04-02T00:44:39;93640.94;;;7.25;77.88
7170;BME280;3626;42.656;23.312;2023-04-02T00:44:48;93642.56;;;7.26;78.09
7170;BME280;3626;42.656;23.312;2023-04-02T00:44:54;93641.75;;;7.26;77.87
7170;BME280;3626;42.656;23.312;2023-04-02T00:45:04;93644.16;;;7.28;78.03
7170;BME280;3626;42.656;23.312;2023-04-02T00:45:17;93634.06;;;7.26;78.13
7170;BME280;3626;42.656;23.312;2023-04-02T00:45:28;93640.16;;;7.25;78.32
7170;BME280;3626;42.656;23.312;2023-04-02T00:45:36;93640.16;;;7.25;78.14
7170;BME280;3626;42.656;23.312;2023-04-02T00:45:46;93642.72;;;7.25;77.95
7170;BME280;3626;42.656;23.312;2023-04-02T00:45:58;93647.25;;;7.23;78.52
7170;BME280;3626;42.656;23.312;2023-04-02T00:46:10;93639.53;;;7.23;78.19
7170;BME280;3626;42.656;23.312;2023-04-02T00:46:25;93645.63;;;7.22;78.27
7170;BME280;3626;42.656;23.312;2023-04-02T00:46:39;93637.91;;;7.22;78.04
7170;BME280;3626;42.656;23.312;2023-04-02T00:46:51;93646.44;;;7.22;77.69
7170;BME280;3626;42.656;23.312;2023-04-02T00:46:58;93638.75;;;7.22;77.88
7170;BME280;3626;42.656;23.312;2023-04-02T00:47:12;93631.84;;;7.23;77.95
7170;BME280;3626;42.656;23.312;2023-04-02T00:47:21;93631.84;;;7.23;77.84
7170;BME280;3626;42.656;23.312;2023-04-02T00:47:32;93633.44;;;7.24;76.93
7170;BME280;3626;42.656;23.312;2023-04-02T00:47:39;93632.63;;;7.23;76.94
7170;BME280;3626;42.656;23.312;2023-04-02T00:47:45;93633.44;;;7.24;76.87
7170;BME280;3626;42.656;23.312;2023-04-02T00:47:51;93636.97;;;7.23;76.68
7170;BME280;3626;42.656;23.312;2023-04-02T00:47:58;93635.22;;;7.23;76.55
7170;BME280;3626;42.656;23.312;2023-04-02T00:48:15;93629.28;;;7.23;76.50
7170;BME280;3626;42.656;23.312;2023-04-02T00:48:38;93629.88;;;7.25;75.82
7170;BME280;3626;42.656;23.312;2023-04-02T00:48:51;93635.03;;;7.25;75.93
7170;BME280;3626;42.656;23.312;2023-04-02T00:49:02;93631.47;;;7.26;76.56
7170;BME280;3626;42.656;23.312;2023-04-02T00:49:17;93641.75;;;7.26;76.23
7170;BME280;3626;42.656;23.312;2023-04-02T00:49:34;93635.81;;;7.25;75.93
7170;BME280;3626;42.656;23.312;2023-04-02T00:49:41;93640.81;;;7.27;76.55
7170;BME280;3626;42.656;23.312;2023-04-02T00:49:50;93646.72;;;7.28;76.53
7170;BME280;3626;42.656;23.312;2023-04-02T00:49:58;93646.09;;;7.25;76.41
7170;BME280;3626;42.656;23.312;2023-04-02T00:50:16;93649.63;;;7.24;76.42
7170;BME280;3626;42.656;23.312;2023-04-02T00:50:26;93648.03;;;7.23;76.71
7170;BME280;3626;42.656;23.312;2023-04-02T00:50:38;93643.88;;;7.22;77.39
7170;BME280;3626;42.656;23.312;2023-04-02T00:50:46;93643.06;;;7.22;77.42
7170;BME280;3626;42.656;23.312;2023-04-02T00:50:54;93647.25;;;7.23;77.70
7170;BME280;3626;42.656;23.312;2023-04-02T00:51:10;93646.44;;;7.22;77.64
7170;BME280;3626;42.656;23.312;2023-04-02T00:51:22;93645.63;;;7.22;78.17
7170;BME280;3626;42.656;23.312;2023-04-02T00:51:31;93638.91;;;7.21;78.38
7170;BME280;3626;42.656;23.312;2023-04-02T00:51:43;93654.16;;;7.22;78.07
7170;BME280;3626;42.656;23.312;2023-04-02T00:51:53;93649.16;;;7.21;78.39
7170;BME280;3626;42.656;23.312;2023-04-02T00:52:04;93639.06;;;7.19;78.46
7170;BME280;3626;42.656;23.312;2023-04-02T00:52:12;93647.56;;;7.20;78.46
7170;BME280;3626;42.656;23.312;2023-04-02T00:52:22;93651.13;;;7.19;78.57
7170;BME280;3626;42.656;23.312;2023-04-02T00:52:31;93651.13;;;7.19;78.49
7170;BME280;3626;42.656;23.312;2023-04-02T00:52:38;93647.75;;;7.18;78.76
7170;BME280;3626;42.656;23.312;2023-04-02T00:52:48;93646.97;;;7.18;78.72